Barkley Observed Data For Previous 48 Hours

Caption
Day and Hour Reservoir Elevation (behind dam)* Tailwater Elevation (below dam)* Average Hourly Discharge*
1/17/2018 1 AM CST 354.60 314.40 35,000
1/17/2018 2 AM CST 354.60 314.50 35,700
1/17/2018 3 AM CST 354.60 314.60 35,300
1/17/2018 4 AM CST 354.60 314.70 36,000
1/17/2018 5 AM CST 354.60 314.80 35,600
1/17/2018 6 AM CST 354.55 314.85 36,300
1/17/2018 7 AM CST 354.55 314.95 36,300
1/17/2018 8 AM CST 354.55 315.05 36,300
1/17/2018 9 AM CST 354.55 315.15 36,600
1/17/2018 10 AM CST 354.55 315.25 36,600
1/17/2018 11 AM CST 354.55 315.35 36,900
1/17/2018 12 PM CST 354.50 315.40 36,900
1/17/2018 1 PM CST 354.50 315.50 37,200
1/17/2018 2 PM CST 354.50 315.60 37,200
1/17/2018 3 PM CST 354.50 315.70 37,200
1/17/2018 4 PM CST 354.50 315.80 37,500
1/17/2018 5 PM CST 354.50 315.80 37,500
1/17/2018 6 PM CST 354.50 315.80 37,500
1/17/2018 7 PM CST 354.50 315.90 37,500
1/17/2018 8 PM CST 354.45 316.05 37,400
1/17/2018 9 PM CST 354.45 316.15 37,100
1/17/2018 10 PM CST 354.40 316.20 37,300
1/17/2018 11 PM CST 354.40 316.30 37,900
1/18/2018 12 AM CST 354.40 316.40 38,000
1/18/2018 1 AM CST 354.39 315.25 24,600
1/18/2018 2 AM CST 354.39 315.05 24,400
1/18/2018 3 AM CST 354.38 314.85 24,200
1/18/2018 4 AM CST 354.38 316.15 38,100
1/18/2018 5 AM CST 354.37 316.35 38,400
1/18/2018 6 AM CST 354.36 316.45 38,700
1/18/2018 7 AM CST 354.36 316.55 38,200
1/18/2018 8 AM CST 354.35 316.55 37,700
1/18/2018 9 AM CST 354.35 316.65 38,000
1/18/2018 10 AM CST 354.35 316.75 38,000
1/18/2018 11 AM CST 354.35 316.95 38,300
1/18/2018 12 PM CST 354.30 316.90 38,300
1/18/2018 1 PM CST 354.30 316.90 38,300
1/18/2018 2 PM CST 354.40 315.80 24,600
1/18/2018 3 PM CST 354.40 315.70 24,500
1/18/2018 4 PM CST 354.40 315.60 24,400
1/18/2018 5 PM CST 354.40 315.60 24,400
1/18/2018 6 PM CST 354.40 315.60 24,400
1/18/2018 7 PM CST 354.30 316.70 38,500
1/18/2018 8 PM CST 354.30 316.90 37,800
1/18/2018 9 PM CST 354.30 317.10 38,100

Elevations are in feet above sea level. Discharges are in cubic feet per second and are reported at the end of the hour.